sensor_id;sensor_type;location;lat;lon;timestamp;temperature;humidity
8858;DHT22;4465;50.904;4.696;2024-01-27T00:01:42;3.70;99.90
8858;DHT22;4465;50.904;4.696;2024-01-27T00:04:08;3.70;99.90
8858;DHT22;4465;50.904;4.696;2024-01-27T00:06:36;3.70;99.90
8858;DHT22;4465;50.904;4.696;2024-01-27T00:09:02;3.60;99.90
8858;DHT22;4465;50.904;4.696;2024-01-27T00:11:28;3.70;99.90
8858;DHT22;4465;50.904;4.696;2024-01-27T00:13:53;3.60;99.90
8858;DHT22;4465;50.904;4.696;2024-01-27T00:16:19;3.50;99.90
8858;DHT22;4465;50.904;4.696;2024-01-27T00:18:47;3.50;99.90
8858;DHT22;4465;50.904;4.696;2024-01-27T00:21:13;3.50;99.90
8858;DHT22;4465;50.904;4.696;2024-01-27T00:23:39;3.50;99.90
8858;DHT22;4465;50.904;4.696;2024-01-27T00:26:07;3.50;99.90
8858;DHT22;4465;50.904;4.696;2024-01-27T00:28:33;3.40;99.90
8858;DHT22;4465;50.904;4.696;2024-01-27T00:31:01;3.50;99.90
8858;DHT22;4465;50.904;4.696;2024-01-27T00:33:27;3.40;99.90
8858;DHT22;4465;50.904;4.696;2024-01-27T00:35:55;3.40;99.90
8858;DHT22;4465;50.904;4.696;2024-01-27T00:38:21;3.30;99.90
8858;DHT22;4465;50.904;4.696;2024-01-27T00:40:47;3.30;99.90
8858;DHT22;4465;50.904;4.696;2024-01-27T00:43:15;3.30;99.90
8858;DHT22;4465;50.904;4.696;2024-01-27T00:45:41;3.30;99.90
8858;DHT22;4465;50.904;4.696;2024-01-27T00:48:07;3.30;99.90
8858;DHT22;4465;50.904;4.696;2024-01-27T00:50:32;3.20;99.90
8858;DHT22;4465;50.904;4.696;2024-01-27T00:52:58;3.20;99.90
8858;DHT22;4465;50.904;4.696;2024-01-27T00:55:24;3.20;99.90
8858;DHT22;4465;50.904;4.696;2024-01-27T00:57:50;3.20;99.90
8858;DHT22;4465;50.904;4.696;2024-01-27T01:00:19;3.20;99.90
8858;DHT22;4465;50.904;4.696;2024-01-27T01:02:45;3.20;99.90
8858;DHT22;4465;50.904;4.696;2024-01-27T01:05:11;3.20;99.90
8858;DHT22;4465;50.904;4.696;2024-01-27T01:07:42;3.20;99.90
8858;DHT22;4465;50.904;4.696;2024-01-27T01:10:07;3.20;99.90
8858;DHT22;4465;50.904;4.696;2024-01-27T01:12:33;3.20;99.90
8858;DHT22;4465;50.904;4.696;2024-01-27T01:14:59;3.20;99.90
8858;DHT22;4465;50.904;4.696;2024-01-27T01:17:28;3.20;99.90
8858;DHT22;4465;50.904;4.696;2024-01-27T01:19:53;3.20;99.90
8858;DHT22;4465;50.904;4.696;2024-01-27T01:22:19;3.20;99.90
8858;DHT22;4465;50.904;4.696;2024-01-27T01:24:45;3.30;99.90
8858;DHT22;4465;50.904;4.696;2024-01-27T01:27:14;3.30;99.90
8858;DHT22;4465;50.904;4.696;2024-01-27T01:29:40;3.30;99.90
8858;DHT22;4465;50.904;4.696;2024-01-27T01:32:08;3.20;99.90
8858;DHT22;4465;50.904;4.696;2024-01-27T01:34:36;3.30;99.90
8858;DHT22;4465;50.904;4.696;2024-01-27T01:37:05;3.20;99.90
8858;DHT22;4465;50.904;4.696;2024-01-27T01:39:31;3.20;99.90
8858;DHT22;4465;50.904;4.696;2024-01-27T01:41:56;3.20;99.90
8858;DHT22;4465;50.904;4.696;2024-01-27T01:44:23;3.10;99.90
8858;DHT22;4465;50.904;4.696;2024-01-27T01:46:49;3.20;99.90
8858;DHT22;4465;50.904;4.696;2024-01-27T01:49:15;3.10;99.90
8858;DHT22;4465;50.904;4.696;2024-01-27T01:51:43;3.10;99.90
8858;DHT22;4465;50.904;4.696;2024-01-27T01:54:11;3.10;99.90
8858;DHT22;4465;50.904;4.696;2024-01-27T01:56:40;3.10;99.90
8858;DHT22;4465;50.904;4.696;2024-01-27T01:59:10;3.10;99.90
8858;DHT22;4465;50.904;4.696;2024-01-27T02:01:36;3.00;99.90
8858;DHT22;4465;50.904;4.696;2024-01-27T02:04:03;3.00;99.90
8858;DHT22;4465;50.904;4.696;2024-01-27T02:06:29;3.00;99.90
8858;DHT22;4465;50.904;4.696;2024-01-27T02:08:55;3.00;99.90
8858;DHT22;4465;50.904;4.696;2024-01-27T02:11:21;3.00;99.90
8858;DHT22;4465;50.904;4.696;2024-01-27T02:13:49;2.90;99.90
8858;DHT22;4465;50.904;4.696;2024-01-27T02:16:15;2.90;99.90
8858;DHT22;4465;50.904;4.696;2024-01-27T02:18:45;2.90;99.90
8858;DHT22;4465;50.904;4.696;2024-01-27T02:21:14;2.90;99.90
8858;DHT22;4465;50.904;4.696;2024-01-27T02:23:40;2.80;99.90
8858;DHT22;4465;50.904;4.696;2024-01-27T02:26:05;2.80;99.90
8858;DHT22;4465;50.904;4.696;2024-01-27T02:28:32;2.80;99.90
8858;DHT22;4465;50.904;4.696;2024-01-27T02:30:59;2.80;99.90
8858;DHT22;4465;50.904;4.696;2024-01-27T02:33:28;2.80;99.90
8858;DHT22;4465;50.904;4.696;2024-01-27T02:35:54;2.80;99.90
8858;DHT22;4465;50.904;4.696;2024-01-27T02:38:20;2.80;99.90
8858;DHT22;4465;50.904;4.696;2024-01-27T02:40:46;2.80;99.90
8858;DHT22;4465;50.904;4.696;2024-01-27T02:43:12;2.80;99.90
8858;DHT22;4465;50.904;4.696;2024-01-27T02:45:42;2.80;99.90
8858;DHT22;4465;50.904;4.696;2024-01-27T02:48:08;2.70;99.90
8858;DHT22;4465;50.904;4.696;2024-01-27T02:50:37;2.70;99.90
8858;DHT22;4465;50.904;4.696;2024-01-27T02:53:02;2.70;99.90
8858;DHT22;4465;50.904;4.696;2024-01-27T02:55:30;2.70;99.90
8858;DHT22;4465;50.904;4.696;2024-01-27T02:57:56;2.80;99.90
8858;DHT22;4465;50.904;4.696;2024-01-27T03:00:22;2.80;99.90
8858;DHT22;4465;50.904;4.696;2024-01-27T03:02:48;2.80;99.90
8858;DHT22;4465;50.904;4.696;2024-01-27T03:05:14;2.70;99.90
8858;DHT22;4465;50.904;4.696;2024-01-27T03:07:44;2.80;99.90
8858;DHT22;4465;50.904;4.696;2024-01-27T03:10:10;2.70;99.90
8858;DHT22;4465;50.904;4.696;2024-01-27T03:12:41;2.80;99.90
8858;DHT22;4465;50.904;4.696;2024-01-27T03:15:06;2.70;99.90
8858;DHT22;4465;50.904;4.696;2024-01-27T03:17:33;2.70;99.90
8858;DHT22;4465;50.904;4.696;2024-01-27T03:19:59;2.80;99.90
8858;DHT22;4465;50.904;4.696;2024-01-27T03:22:25;2.70;99.90
8858;DHT22;4465;50.904;4.696;2024-01-27T03:24:53;2.70;99.90
8858;DHT22;4465;50.904;4.696;2024-01-27T03:27:20;2.70;99.90
8858;DHT22;4465;50.904;4.696;2024-01-27T03:29:46;2.70;99.90
8858;DHT22;4465;50.904;4.696;2024-01-27T03:32:12;2.80;99.90
8858;DHT22;4465;50.904;4.696;2024-01-27T03:34:43;2.70;99.90
8858;DHT22;4465;50.904;4.696;2024-01-27T03:37:10;2.70;99.90
8858;DHT22;4465;50.904;4.696;2024-01-27T03:39:41;2.70;99.90
8858;DHT22;4465;50.904;4.696;2024-01-27T03:42:09;2.70;99.90
8858;DHT22;4465;50.904;4.696;2024-01-27T03:44:35;2.70;99.90
8858;DHT22;4465;50.904;4.696;2024-01-27T03:47:01;2.70;99.90
8858;DHT22;4465;50.904;4.696;2024-01-27T03:49:29;2.70;99.90
8858;DHT22;4465;50.904;4.696;2024-01-27T03:51:55;2.70;99.90
8858;DHT22;4465;50.904;4.696;2024-01-27T03:54:21;2.70;99.90
8858;DHT22;4465;50.904;4.696;2024-01-27T03:56:49;2.70;99.90
8858;DHT22;4465;50.904;4.696;2024-01-27T03:59:17;2.70;99.90
8858;DHT22;4465;50.904;4.696;2024-01-27T04:01:43;2.70;99.90
8858;DHT22;4465;50.904;4.696;2024-01-27T04:04:11;2.70;99.90
8858;DHT22;4465;50.904;4.696;2024-01-27T04:06:37;2.60;99.90
8858;DHT22;4465;50.904;4.696;2024-01-27T04:09:04;2.80;99.90
8858;DHT22;4465;50.904;4.696;2024-01-27T04:11:30;2.70;99.90
8858;DHT22;4465;50.904;4.696;2024-01-27T04:13:55;2.50;99.90
8858;DHT22;4465;50.904;4.696;2024-01-27T04:16:24;2.60;99.90
8858;DHT22;4465;50.904;4.696;2024-01-27T04:18:50;2.60;99.90
8858;DHT22;4465;50.904;4.696;2024-01-27T04:21:15;2.60;99.90
8858;DHT22;4465;50.904;4.696;2024-01-27T04:23:41;2.60;99.90
8858;DHT22;4465;50.904;4.696;2024-01-27T04:26:07;2.60;99.90
8858;DHT22;4465;50.904;4.696;2024-01-27T04:28:34;2.50;99.90
8858;DHT22;4465;50.904;4.696;2024-01-27T04:31:00;2.50;99.90
8858;DHT22;4465;50.904;4.696;2024-01-27T04:33:28;2.50;99.90
8858;DHT22;4465;50.904;4.696;2024-01-27T04:35:54;2.50;99.90
8858;DHT22;4465;50.904;4.696;2024-01-27T04:38:20;2.40;99.90
8858;DHT22;4465;50.904;4.696;2024-01-27T04:40:46;2.50;99.90
8858;DHT22;4465;50.904;4.696;2024-01-27T04:43:17;2.40;99.90
8858;DHT22;4465;50.904;4.696;2024-01-27T04:45:46;2.40;99.90
8858;DHT22;4465;50.904;4.696;2024-01-27T04:48:12;2.40;99.90
8858;DHT22;4465;50.904;4.696;2024-01-27T04:50:38;2.40;99.90
8858;DHT22;4465;50.904;4.696;2024-01-27T04:53:04;2.40;99.90
8858;DHT22;4465;50.904;4.696;2024-01-27T04:55:30;2.40;99.90
8858;DHT22;4465;50.904;4.696;2024-01-27T04:57:55;2.50;99.90
8858;DHT22;4465;50.904;4.696;2024-01-27T05:00:24;2.40;99.90
8858;DHT22;4465;50.904;4.696;2024-01-27T05:02:53;2.40;99.90
8858;DHT22;4465;50.904;4.696;2024-01-27T05:05:19;2.40;99.90
8858;DHT22;4465;50.904;4.696;2024-01-27T05:07:45;2.30;99.90
8858;DHT22;4465;50.904;4.696;2024-01-27T05:10:11;2.40;99.90
8858;DHT22;4465;50.904;4.696;2024-01-27T05:12:42;2.30;99.90
8858;DHT22;4465;50.904;4.696;2024-01-27T05:15:09;2.30;99.90
8858;DHT22;4465;50.904;4.696;2024-01-27T05:17:36;2.20;99.90
8858;DHT22;4465;50.904;4.696;2024-01-27T05:20:01;2.20;99.90
8858;DHT22;4465;50.904;4.696;2024-01-27T05:22:29;2.20;99.90
8858;DHT22;4465;50.904;4.696;2024-01-27T05:24:55;2.20;99.90
8858;DHT22;4465;50.904;4.696;2024-01-27T05:27:21;2.30;99.90
8858;DHT22;4465;50.904;4.696;2024-01-27T05:29:47;2.30;99.90
8858;DHT22;4465;50.904;4.696;2024-01-27T05:32:13;2.30;99.90
8858;DHT22;4465;50.904;4.696;2024-01-27T05:34:41;2.20;99.90
8858;DHT22;4465;50.904;4.696;2024-01-27T05:37:07;2.10;99.90
8858;DHT22;4465;50.904;4.696;2024-01-27T05:39:35;2.10;99.90
8858;DHT22;4465;50.904;4.696;2024-01-27T05:42:01;2.10;99.90
8858;DHT22;4465;50.904;4.696;2024-01-27T05:44:29;2.20;99.90
8858;DHT22;4465;50.904;4.696;2024-01-27T05:46:55;2.20;99.90
8858;DHT22;4465;50.904;4.696;2024-01-27T05:49:21;2.20;99.90
8858;DHT22;4465;50.904;4.696;2024-01-27T05:51:49;2.20;99.90
8858;DHT22;4465;50.904;4.696;2024-01-27T05:54:15;2.20;99.90
8858;DHT22;4465;50.904;4.696;2024-01-27T05:56:43;2.20;99.90
8858;DHT22;4465;50.904;4.696;2024-01-27T05:59:09;2.20;99.90
8858;DHT22;4465;50.904;4.696;2024-01-27T06:01:37;2.20;99.90
8858;DHT22;4465;50.904;4.696;2024-01-27T06:04:05;2.20;99.90
8858;DHT22;4465;50.904;4.696;2024-01-27T06:06:34;2.20;99.90
8858;DHT22;4465;50.904;4.696;2024-01-27T06:09:02;2.20;99.90
8858;DHT22;4465;50.904;4.696;2024-01-27T06:11:29;2.20;99.90
8858;DHT22;4465;50.904;4.696;2024-01-27T06:13:57;2.10;99.90
8858;DHT22;4465;50.904;4.696;2024-01-27T06:16:23;2.10;99.90
8858;DHT22;4465;50.904;4.696;2024-01-27T06:18:49;2.20;99.90
8858;DHT22;4465;50.904;4.696;2024-01-27T06:21:17;2.10;99.90
8858;DHT22;4465;50.904;4.696;2024-01-27T06:23:43;2.10;99.90
8858;DHT22;4465;50.904;4.696;2024-01-27T06:26:12;2.10;99.90
8858;DHT22;4465;50.904;4.696;2024-01-27T06:28:38;2.10;99.90
8858;DHT22;4465;50.904;4.696;2024-01-27T06:31:04;2.10;99.90
8858;DHT22;4465;50.904;4.696;2024-01-27T06:33:30;2.10;99.90
8858;DHT22;4465;50.904;4.696;2024-01-27T06:35:58;2.10;99.90
8858;DHT22;4465;50.904;4.696;2024-01-27T06:38:24;2.00;99.90
8858;DHT22;4465;50.904;4.696;2024-01-27T06:40:52;2.10;99.90
8858;DHT22;4465;50.904;4.696;2024-01-27T06:43:17;2.00;99.90
8858;DHT22;4465;50.904;4.696;2024-01-27T06:45:43;2.10;99.90
8858;DHT22;4465;50.904;4.696;2024-01-27T06:48:09;2.00;99.90
8858;DHT22;4465;50.904;4.696;2024-01-27T06:50:35;2.00;99.90
8858;DHT22;4465;50.904;4.696;2024-01-27T06:53:03;2.00;99.90
8858;DHT22;4465;50.904;4.696;2024-01-27T06:55:29;2.00;99.90
8858;DHT22;4465;50.904;4.696;2024-01-27T06:57:55;2.00;99.90
8858;DHT22;4465;50.904;4.696;2024-01-27T07:00:23;2.00;99.90
8858;DHT22;4465;50.904;4.696;2024-01-27T07:02:49;2.00;99.90
8858;DHT22;4465;50.904;4.696;2024-01-27T07:05:17;2.00;99.90
8858;DHT22;4465;50.904;4.696;2024-01-27T07:07:43;2.00;99.90
8858;DHT22;4465;50.904;4.696;2024-01-27T07:10:09;2.00;99.90
8858;DHT22;4465;50.904;4.696;2024-01-27T07:12:37;2.00;99.90
8858;DHT22;4465;50.904;4.696;2024-01-27T07:15:05;2.10;99.90
8858;DHT22;4465;50.904;4.696;2024-01-27T07:17:31;2.00;99.90
8858;DHT22;4465;50.904;4.696;2024-01-27T07:19:59;2.10;99.90
8858;DHT22;4465;50.904;4.696;2024-01-27T07:22:25;2.10;99.90
8858;DHT22;4465;50.904;4.696;2024-01-27T07:24:51;2.10;99.90
8858;DHT22;4465;50.904;4.696;2024-01-27T07:27:17;2.10;99.90
8858;DHT22;4465;50.904;4.696;2024-01-27T07:29:44;2.10;99.90
8858;DHT22;4465;50.904;4.696;2024-01-27T07:32:09;2.10;99.90
8858;DHT22;4465;50.904;4.696;2024-01-27T07:34:47;2.10;99.90
8858;DHT22;4465;50.904;4.696;2024-01-27T07:37:13;2.10;99.90
8858;DHT22;4465;50.904;4.696;2024-01-27T07:39:39;2.10;99.90
8858;DHT22;4465;50.904;4.696;2024-01-27T07:42:05;2.10;99.90
8858;DHT22;4465;50.904;4.696;2024-01-27T07:44:31;2.10;99.90
8858;DHT22;4465;50.904;4.696;2024-01-27T07:46:56;2.20;99.90
8858;DHT22;4465;50.904;4.696;2024-01-27T07:49:24;2.20;99.90
8858;DHT22;4465;50.904;4.696;2024-01-27T07:51:50;2.20;99.90
8858;DHT22;4465;50.904;4.696;2024-01-27T07:54:16;2.20;99.90
8858;DHT22;4465;50.904;4.696;2024-01-27T07:56:42;2.30;99.90
8858;DHT22;4465;50.904;4.696;2024-01-27T07:59:08;2.20;99.90
8858;DHT22;4465;50.904;4.696;2024-01-27T08:01:40;2.30;99.90
8858;DHT22;4465;50.904;4.696;2024-01-27T08:04:05;2.30;99.90
8858;DHT22;4465;50.904;4.696;2024-01-27T08:06:31;2.30;99.90
8858;DHT22;4465;50.904;4.696;2024-01-27T08:08:59;2.40;99.90
8858;DHT22;4465;50.904;4.696;2024-01-27T08:11:25;2.40;99.90
8858;DHT22;4465;50.904;4.696;2024-01-27T08:13:51;2.40;99.90
8858;DHT22;4465;50.904;4.696;2024-01-27T08:16:17;2.50;99.90
8858;DHT22;4465;50.904;4.696;2024-01-27T08:18:43;2.50;99.90
8858;DHT22;4465;50.904;4.696;2024-01-27T08:21:10;2.50;99.90
8858;DHT22;4465;50.904;4.696;2024-01-27T08:23:37;2.50;99.90
8858;DHT22;4465;50.904;4.696;2024-01-27T08:26:03;2.60;99.90
8858;DHT22;4465;50.904;4.696;2024-01-27T08:28:28;2.60;99.90
8858;DHT22;4465;50.904;4.696;2024-01-27T08:30:57;2.60;99.90
8858;DHT22;4465;50.904;4.696;2024-01-27T08:33:25;2.60;99.90
8858;DHT22;4465;50.904;4.696;2024-01-27T08:35:51;2.60;99.90
8858;DHT22;4465;50.904;4.696;2024-01-27T08:38:19;2.70;99.90
8858;DHT22;4465;50.904;4.696;2024-01-27T08:40:45;2.70;99.90
8858;DHT22;4465;50.904;4.696;2024-01-27T08:43:13;2.70;99.90
8858;DHT22;4465;50.904;4.696;2024-01-27T08:45:39;2.80;99.90
8858;DHT22;4465;50.904;4.696;2024-01-27T08:48:05;2.90;99.90
8858;DHT22;4465;50.904;4.696;2024-01-27T08:50:31;3.00;99.90
8858;DHT22;4465;50.904;4.696;2024-01-27T08:53:00;3.00;99.90
8858;DHT22;4465;50.904;4.696;2024-01-27T08:55:26;3.10;99.90
8858;DHT22;4465;50.904;4.696;2024-01-27T08:57:52;3.20;99.90
8858;DHT22;4465;50.904;4.696;2024-01-27T09:00:18;3.30;99.90
8858;DHT22;4465;50.904;4.696;2024-01-27T09:02:46;3.30;99.90
8858;DHT22;4465;50.904;4.696;2024-01-27T09:05:12;3.40;99.90
8858;DHT22;4465;50.904;4.696;2024-01-27T09:07:38;3.40;99.90
8858;DHT22;4465;50.904;4.696;2024-01-27T09:10:06;3.50;99.90
8858;DHT22;4465;50.904;4.696;2024-01-27T09:12:33;3.60;99.90
8858;DHT22;4465;50.904;4.696;2024-01-27T09:14:59;3.60;99.90
8858;DHT22;4465;50.904;4.696;2024-01-27T09:17:27;3.70;99.90
8858;DHT22;4465;50.904;4.696;2024-01-27T09:19:53;3.80;99.90
8858;DHT22;4465;50.904;4.696;2024-01-27T09:22:19;3.90;99.90
8858;DHT22;4465;50.904;4.696;2024-01-27T09:24:45;4.00;99.90
8858;DHT22;4465;50.904;4.696;2024-01-27T09:27:13;4.10;99.90
8858;DHT22;4465;50.904;4.696;2024-01-27T09:29:39;4.20;99.90
8858;DHT22;4465;50.904;4.696;2024-01-27T09:32:05;4.40;99.90
8858;DHT22;4465;50.904;4.696;2024-01-27T09:34:31;4.50;99.90
8858;DHT22;4465;50.904;4.696;2024-01-27T09:36:57;4.60;99.90
8858;DHT22;4465;50.904;4.696;2024-01-27T09:39:22;4.70;99.90
8858;DHT22;4465;50.904;4.696;2024-01-27T09:41:48;4.80;99.90
8858;DHT22;4465;50.904;4.696;2024-01-27T09:44:15;4.90;99.90
8858;DHT22;4465;50.904;4.696;2024-01-27T09:46:43;5.00;99.90
8858;DHT22;4465;50.904;4.696;2024-01-27T09:49:14;5.10;99.90
8858;DHT22;4465;50.904;4.696;2024-01-27T09:51:43;5.10;99.90
8858;DHT22;4465;50.904;4.696;2024-01-27T09:54:09;5.30;99.90
8858;DHT22;4465;50.904;4.696;2024-01-27T09:56:37;5.30;99.90
8858;DHT22;4465;50.904;4.696;2024-01-27T09:59:03;5.40;99.90
8858;DHT22;4465;50.904;4.696;2024-01-27T10:01:32;5.50;99.90
8858;DHT22;4465;50.904;4.696;2024-01-27T10:03:58;5.60;99.90
8858;DHT22;4465;50.904;4.696;2024-01-27T10:06:26;5.80;99.90
8858;DHT22;4465;50.904;4.696;2024-01-27T10:08:56;5.90;99.90
8858;DHT22;4465;50.904;4.696;2024-01-27T10:11:22;6.00;99.90
8858;DHT22;4465;50.904;4.696;2024-01-27T10:13:55;6.10;99.90
8858;DHT22;4465;50.904;4.696;2024-01-27T10:16:21;6.20;99.90
8858;DHT22;4465;50.904;4.696;2024-01-27T10:18:47;6.40;99.90
8858;DHT22;4465;50.904;4.696;2024-01-27T10:21:15;6.50;99.90
8858;DHT22;4465;50.904;4.696;2024-01-27T10:23:41;6.70;99.90
8858;DHT22;4465;50.904;4.696;2024-01-27T10:26:10;6.80;99.90
8858;DHT22;4465;50.904;4.696;2024-01-27T10:28:37;7.00;99.90
8858;DHT22;4465;50.904;4.696;2024-01-27T10:31:11;7.20;99.90
8858;DHT22;4465;50.904;4.696;2024-01-27T10:33:38;7.40;99.90
8858;DHT22;4465;50.904;4.696;2024-01-27T10:36:06;7.60;99.90
8858;DHT22;4465;50.904;4.696;2024-01-27T10:38:38;7.80;99.90
8858;DHT22;4465;50.904;4.696;2024-01-27T10:41:07;7.90;99.90
8858;DHT22;4465;50.904;4.696;2024-01-27T10:43:34;8.00;99.90
8858;DHT22;4465;50.904;4.696;2024-01-27T10:46:01;8.20;99.90
8858;DHT22;4465;50.904;4.696;2024-01-27T10:48:30;8.40;99.90
8858;DHT22;4465;50.904;4.696;2024-01-27T10:50:59;8.50;99.90
8858;DHT22;4465;50.904;4.696;2024-01-27T10:53:25;8.60;99.90
8858;DHT22;4465;50.904;4.696;2024-01-27T10:55:57;8.70;99.90
8858;DHT22;4465;50.904;4.696;2024-01-27T10:58:23;8.90;99.90
8858;DHT22;4465;50.904;4.696;2024-01-27T11:00:52;9.00;99.90
8858;DHT22;4465;50.904;4.696;2024-01-27T11:03:19;9.10;99.90
8858;DHT22;4465;50.904;4.696;2024-01-27T11:05:46;9.20;99.90
8858;DHT22;4465;50.904;4.696;2024-01-27T11:08:12;9.30;99.90
8858;DHT22;4465;50.904;4.696;2024-01-27T11:10:39;9.40;99.90
8858;DHT22;4465;50.904;4.696;2024-01-27T11:13:07;9.60;99.90
8858;DHT22;4465;50.904;4.696;2024-01-27T11:15:33;9.70;99.90
8858;DHT22;4465;50.904;4.696;2024-01-27T11:17:59;9.80;99.90
8858;DHT22;4465;50.904;4.696;2024-01-27T11:20:34;9.90;99.90
8858;DHT22;4465;50.904;4.696;2024-01-27T11:23:10;10.00;99.90
8858;DHT22;4465;50.904;4.696;2024-01-27T11:25:36;10.10;99.90
8858;DHT22;4465;50.904;4.696;2024-01-27T11:28:10;10.30;99.90
8858;DHT22;4465;50.904;4.696;2024-01-27T11:30:36;10.60;99.90
8858;DHT22;4465;50.904;4.696;2024-01-27T11:33:05;10.90;99.90
8858;DHT22;4465;50.904;4.696;2024-01-27T11:35:31;11.20;99.90
8858;DHT22;4465;50.904;4.696;2024-01-27T11:37:59;11.60;99.90
8858;DHT22;4465;50.904;4.696;2024-01-27T11:40:25;11.90;99.90
8858;DHT22;4465;50.904;4.696;2024-01-27T11:42:57;12.30;99.90
8858;DHT22;4465;50.904;4.696;2024-01-27T11:45:26;12.70;99.90
8858;DHT22;4465;50.904;4.696;2024-01-27T11:47:54;13.00;99.90
8858;DHT22;4465;50.904;4.696;2024-01-27T11:50:21;13.20;99.90
8858;DHT22;4465;50.904;4.696;2024-01-27T11:52:49;13.40;99.90
8858;DHT22;4465;50.904;4.696;2024-01-27T11:55:15;13.60;99.90
8858;DHT22;4465;50.904;4.696;2024-01-27T11:57:44;13.70;99.90
8858;DHT22;4465;50.904;4.696;2024-01-27T12:00:10;13.70;99.90
8858;DHT22;4465;50.904;4.696;2024-01-27T12:02:37;13.80;99.90
8858;DHT22;4465;50.904;4.696;2024-01-27T12:05:04;13.60;99.90
8858;DHT22;4465;50.904;4.696;2024-01-27T12:07:30;13.40;99.90
8858;DHT22;4465;50.904;4.696;2024-01-27T12:09:56;13.20;99.90
8858;DHT22;4465;50.904;4.696;2024-01-27T12:12:22;13.00;99.90
8858;DHT22;4465;50.904;4.696;2024-01-27T12:14:51;12.70;99.90
8858;DHT22;4465;50.904;4.696;2024-01-27T12:17:17;12.50;99.90
8858;DHT22;4465;50.904;4.696;2024-01-27T12:19:50;12.20;99.90
8858;DHT22;4465;50.904;4.696;2024-01-27T12:22:21;11.90;99.90
8858;DHT22;4465;50.904;4.696;2024-01-27T12:24:48;11.60;99.90
8858;DHT22;4465;50.904;4.696;2024-01-27T12:27:14;11.50;99.90
8858;DHT22;4465;50.904;4.696;2024-01-27T12:29:41;11.30;99.90
8858;DHT22;4465;50.904;4.696;2024-01-27T12:32:07;11.20;99.90
8858;DHT22;4465;50.904;4.696;2024-01-27T12:34:42;11.10;99.90
8858;DHT22;4465;50.904;4.696;2024-01-27T12:37:08;11.00;99.90
8858;DHT22;4465;50.904;4.696;2024-01-27T12:39:34;10.90;99.90
8858;DHT22;4465;50.904;4.696;2024-01-27T12:42:00;10.80;99.90
8858;DHT22;4465;50.904;4.696;2024-01-27T12:44:26;10.70;99.90
8858;DHT22;4465;50.904;4.696;2024-01-27T12:46:51;10.60;99.90
8858;DHT22;4465;50.904;4.696;2024-01-27T12:49:19;10.60;99.90
8858;DHT22;4465;50.904;4.696;2024-01-27T12:51:46;10.60;99.90
8858;DHT22;4465;50.904;4.696;2024-01-27T12:54:14;10.60;99.90
8858;DHT22;4465;50.904;4.696;2024-01-27T12:56:40;10.60;99.90
8858;DHT22;4465;50.904;4.696;2024-01-27T12:59:06;10.50;99.90
8858;DHT22;4465;50.904;4.696;2024-01-27T13:01:35;10.40;99.90
8858;DHT22;4465;50.904;4.696;2024-01-27T13:04:06;10.30;99.90
8858;DHT22;4465;50.904;4.696;2024-01-27T13:06:34;10.30;99.90
8858;DHT22;4465;50.904;4.696;2024-01-27T13:09:03;10.30;99.90
8858;DHT22;4465;50.904;4.696;2024-01-27T13:11:29;10.30;99.90
8858;DHT22;4465;50.904;4.696;2024-01-27T13:13:55;10.40;99.90
8858;DHT22;4465;50.904;4.696;2024-01-27T13:16:23;10.40;99.90
8858;DHT22;4465;50.904;4.696;2024-01-27T13:18:49;10.50;99.90
8858;DHT22;4465;50.904;4.696;2024-01-27T13:21:15;10.60;99.90
8858;DHT22;4465;50.904;4.696;2024-01-27T13:23:41;10.70;99.90
8858;DHT22;4465;50.904;4.696;2024-01-27T13:26:06;10.70;99.90
8858;DHT22;4465;50.904;4.696;2024-01-27T13:28:35;10.70;99.90
8858;DHT22;4465;50.904;4.696;2024-01-27T13:31:00;10.80;99.90
8858;DHT22;4465;50.904;4.696;2024-01-27T13:33:28;10.80;99.90
8858;DHT22;4465;50.904;4.696;2024-01-27T13:35:54;10.80;99.90
8858;DHT22;4465;50.904;4.696;2024-01-27T13:38:20;10.80;99.90
8858;DHT22;4465;50.904;4.696;2024-01-27T13:40:51;10.80;99.90
8858;DHT22;4465;50.904;4.696;2024-01-27T13:43:17;10.90;99.90
8858;DHT22;4465;50.904;4.696;2024-01-27T13:45:45;10.90;99.90
8858;DHT22;4465;50.904;4.696;2024-01-27T13:48:12;10.90;99.90
8858;DHT22;4465;50.904;4.696;2024-01-27T13:50:38;10.90;99.90
8858;DHT22;4465;50.904;4.696;2024-01-27T13:53:04;11.00;99.90
8858;DHT22;4465;50.904;4.696;2024-01-27T13:55:34;11.10;99.90
8858;DHT22;4465;50.904;4.696;2024-01-27T13:58:01;11.10;99.90
8858;DHT22;4465;50.904;4.696;2024-01-27T14:00:27;11.10;99.90
8858;DHT22;4465;50.904;4.696;2024-01-27T14:02:52;11.10;99.90
8858;DHT22;4465;50.904;4.696;2024-01-27T14:05:18;11.10;99.90
8858;DHT22;4465;50.904;4.696;2024-01-27T14:07:44;11.10;99.90
8858;DHT22;4465;50.904;4.696;2024-01-27T14:10:10;11.20;99.90
8858;DHT22;4465;50.904;4.696;2024-01-27T14:12:36;11.20;99.90
8858;DHT22;4465;50.904;4.696;2024-01-27T14:15:05;11.20;99.90
8858;DHT22;4465;50.904;4.696;2024-01-27T14:17:35;11.40;99.90
8858;DHT22;4465;50.904;4.696;2024-01-27T14:20:02;11.40;99.90
8858;DHT22;4465;50.904;4.696;2024-01-27T14:22:28;11.50;99.90
8858;DHT22;4465;50.904;4.696;2024-01-27T14:24:54;11.50;99.90
8858;DHT22;4465;50.904;4.696;2024-01-27T14:27:20;11.60;99.90
8858;DHT22;4465;50.904;4.696;2024-01-27T14:29:52;11.70;99.90
8858;DHT22;4465;50.904;4.696;2024-01-27T14:32:18;11.80;99.90
8858;DHT22;4465;50.904;4.696;2024-01-27T14:34:44;11.90;99.90
8858;DHT22;4465;50.904;4.696;2024-01-27T14:37:09;12.00;99.90
8858;DHT22;4465;50.904;4.696;2024-01-27T14:39:35;12.00;99.90
8858;DHT22;4465;50.904;4.696;2024-01-27T14:42:02;12.20;99.90
8858;DHT22;4465;50.904;4.696;2024-01-27T14:44:29;12.30;99.90
8858;DHT22;4465;50.904;4.696;2024-01-27T14:46:55;12.40;99.90
8858;DHT22;4465;50.904;4.696;2024-01-27T14:49:21;12.40;99.90
8858;DHT22;4465;50.904;4.696;2024-01-27T14:51:47;12.40;99.90
8858;DHT22;4465;50.904;4.696;2024-01-27T14:54:15;12.40;99.90
8858;DHT22;4465;50.904;4.696;2024-01-27T14:56:41;12.30;99.90
8858;DHT22;4465;50.904;4.696;2024-01-27T14:59:09;12.10;99.90
8858;DHT22;4465;50.904;4.696;2024-01-27T15:01:35;12.00;99.90
8858;DHT22;4465;50.904;4.696;2024-01-27T15:04:01;11.90;99.90
8858;DHT22;4465;50.904;4.696;2024-01-27T15:06:27;11.70;99.90
8858;DHT22;4465;50.904;4.696;2024-01-27T15:08:53;11.60;99.90
8858;DHT22;4465;50.904;4.696;2024-01-27T15:11:21;11.40;99.90
8858;DHT22;4465;50.904;4.696;2024-01-27T15:13:47;11.30;99.90
8858;DHT22;4465;50.904;4.696;2024-01-27T15:16:13;11.10;99.90
8858;DHT22;4465;50.904;4.696;2024-01-27T15:18:39;11.00;99.90
8858;DHT22;4465;50.904;4.696;2024-01-27T15:21:11;10.80;99.90
8858;DHT22;4465;50.904;4.696;2024-01-27T15:23:40;10.70;99.90
8858;DHT22;4465;50.904;4.696;2024-01-27T15:26:06;10.60;99.90
8858;DHT22;4465;50.904;4.696;2024-01-27T15:28:35;10.40;99.90
8858;DHT22;4465;50.904;4.696;2024-01-27T15:31:06;10.30;99.90
8858;DHT22;4465;50.904;4.696;2024-01-27T15:33:32;10.20;99.90
8858;DHT22;4465;50.904;4.696;2024-01-27T15:35:57;10.10;99.90
8858;DHT22;4465;50.904;4.696;2024-01-27T15:38:23;10.00;99.90
8858;DHT22;4465;50.904;4.696;2024-01-27T15:40:52;9.90;99.90
8858;DHT22;4465;50.904;4.696;2024-01-27T15:43:18;9.80;99.90
8858;DHT22;4465;50.904;4.696;2024-01-27T15:45:44;9.70;99.90
8858;DHT22;4465;50.904;4.696;2024-01-27T15:48:13;9.60;99.90
8858;DHT22;4465;50.904;4.696;2024-01-27T15:50:38;9.50;99.90
8858;DHT22;4465;50.904;4.696;2024-01-27T15:53:04;9.50;99.90
8858;DHT22;4465;50.904;4.696;2024-01-27T15:55:30;9.40;99.90
8858;DHT22;4465;50.904;4.696;2024-01-27T15:57:57;9.30;99.90
8858;DHT22;4465;50.904;4.696;2024-01-27T16:00:23;9.20;99.90
8858;DHT22;4465;50.904;4.696;2024-01-27T16:02:50;9.10;99.90
8858;DHT22;4465;50.904;4.696;2024-01-27T16:05:16;9.10;99.90
8858;DHT22;4465;50.904;4.696;2024-01-27T16:07:42;9.00;99.90
8858;DHT22;4465;50.904;4.696;2024-01-27T16:10:08;8.90;99.90
8858;DHT22;4465;50.904;4.696;2024-01-27T16:12:34;8.80;99.90